createdAt,value
2018-07-22T00:01:40.837Z,97.00
2018-07-22T00:04:09.286Z,97.00
2018-07-22T00:06:37.667Z,97.00
2018-07-22T00:09:08.530Z,97.00
2018-07-22T00:11:36.877Z,97.00
2018-07-22T00:14:05.539Z,97.00
2018-07-22T00:16:33.860Z,97.00
2018-07-22T00:19:02.190Z,97.00
2018-07-22T00:21:30.764Z,97.00
2018-07-22T00:23:59.128Z,97.00
2018-07-22T00:26:27.456Z,97.00
2018-07-22T00:28:55.867Z,97.00
2018-07-22T00:31:24.234Z,97.00
2018-07-22T00:33:52.705Z,97.00
2018-07-22T00:36:21.067Z,97.00
2018-07-22T00:38:49.447Z,97.00
2018-07-22T00:41:17.823Z,97.00
2018-07-22T00:43:46.193Z,97.00
2018-07-22T00:46:14.554Z,97.00
2018-07-22T00:48:42.907Z,97.00
2018-07-22T00:51:11.284Z,97.00
2018-07-22T00:53:39.654Z,97.00
2018-07-22T00:56:08.088Z,97.00
2018-07-22T00:58:36.557Z,97.00
2018-07-22T01:01:05.014Z,97.00
2018-07-22T01:03:33.350Z,97.00
2018-07-22T01:06:01.690Z,97.00
2018-07-22T01:08:30.047Z,97.00
2018-07-22T01:10:58.378Z,97.00
2018-07-22T01:13:26.744Z,97.00
2018-07-22T01:15:55.085Z,97.00
2018-07-22T01:18:23.419Z,97.00
2018-07-22T01:20:51.759Z,97.00
2018-07-22T01:23:20.168Z,97.00
2018-07-22T01:25:48.754Z,97.00
2018-07-22T01:28:17.060Z,97.00
2018-07-22T01:30:45.413Z,97.00
2018-07-22T01:33:14.018Z,97.00
2018-07-22T01:35:43.136Z,97.00
2018-07-22T01:38:11.494Z,97.00
2018-07-22T01:40:40.551Z,97.00
2018-07-22T01:43:08.884Z,97.00
2018-07-22T01:45:37.242Z,97.00
2018-07-22T01:48:05.615Z,97.00
2018-07-22T01:53:02.035Z,97.00
2018-07-22T01:55:30.385Z,97.00
2018-07-22T01:57:58.800Z,97.00
2018-07-22T02:00:27.144Z,97.00
2018-07-22T02:02:58.678Z,97.00
2018-07-22T02:05:27.293Z,97.00
2018-07-22T02:07:55.889Z,97.00
2018-07-22T02:10:24.286Z,97.00
2018-07-22T02:12:52.663Z,97.00
2018-07-22T02:15:21.037Z,97.00
2018-07-22T02:17:49.408Z,97.00
2018-07-22T02:20:17.752Z,97.00
2018-07-22T02:22:46.245Z,97.00
2018-07-22T02:25:14.593Z,97.00
2018-07-22T02:27:43.018Z,97.00
2018-07-22T02:30:11.339Z,97.00
2018-07-22T02:32:39.810Z,97.00
2018-07-22T02:35:08.121Z,97.00
2018-07-22T02:37:36.477Z,97.00
2018-07-22T02:40:04.979Z,97.00
2018-07-22T02:42:33.344Z,97.00
2018-07-22T02:45:01.691Z,97.00
2018-07-22T02:47:30.063Z,97.00
2018-07-22T02:49:58.399Z,97.00
2018-07-22T02:52:26.747Z,97.00
2018-07-22T02:54:55.098Z,97.00
2018-07-22T02:57:23.410Z,97.00
2018-07-22T02:59:51.806Z,97.00
2018-07-22T03:02:20.144Z,97.00
2018-07-22T03:04:48.512Z,97.00
2018-07-22T03:07:16.882Z,97.00
2018-07-22T03:09:45.592Z,97.00
2018-07-22T03:12:13.928Z,97.00
2018-07-22T03:14:42.310Z,97.00
2018-07-22T03:17:12.238Z,97.00
2018-07-22T03:19:40.772Z,97.00
2018-07-22T03:22:09.222Z,97.00
2018-07-22T03:24:37.722Z,97.00
2018-07-22T03:27:06.359Z,97.00
2018-07-22T03:29:34.685Z,97.00
2018-07-22T03:32:03.104Z,97.00
2018-07-22T03:34:31.470Z,97.00
2018-07-22T03:36:59.821Z,97.00
2018-07-22T03:39:28.155Z,97.00
2018-07-22T03:41:56.506Z,97.00
2018-07-22T03:44:24.910Z,97.00
2018-07-22T03:46:53.256Z,97.00
2018-07-22T03:49:21.596Z,97.00
2018-07-22T03:51:50.918Z,97.00
2018-07-22T03:54:19.320Z,97.00
2018-07-22T03:56:47.664Z,97.00
2018-07-22T03:59:16.047Z,97.00
2018-07-22T04:01:44.447Z,97.00
2018-07-22T04:04:12.816Z,97.00
2018-07-22T04:06:41.148Z,97.00
2018-07-22T04:09:10.257Z,97.00
2018-07-22T04:11:38.732Z,97.00
2018-07-22T04:14:07.111Z,97.00
2018-07-22T04:16:35.528Z,97.00
2018-07-22T04:19:03.990Z,97.00
2018-07-22T04:21:32.393Z,97.00
2018-07-22T04:26:28.735Z,97.00
2018-07-22T04:28:57.090Z,97.00
2018-07-22T04:31:25.459Z,97.00
2018-07-22T04:33:53.855Z,97.00
2018-07-22T04:36:22.215Z,97.00
2018-07-22T04:38:50.608Z,97.00
2018-07-22T04:41:18.949Z,97.00
2018-07-22T04:43:47.293Z,97.00
2018-07-22T04:46:15.685Z,97.00
2018-07-22T04:48:44.060Z,97.00
2018-07-22T04:51:12.435Z,97.00
2018-07-22T04:53:40.867Z,97.00
2018-07-22T04:56:09.201Z,97.00
2018-07-22T04:58:37.607Z,97.00
2018-07-22T05:01:06.023Z,97.00
2018-07-22T05:03:34.351Z,97.00
2018-07-22T05:06:02.704Z,97.00
2018-07-22T05:08:31.139Z,97.00
2018-07-22T05:10:59.518Z,97.00
2018-07-22T05:13:27.915Z,97.00
2018-07-22T05:15:56.275Z,97.00
2018-07-22T05:18:24.612Z,97.00
2018-07-22T05:20:52.909Z,97.00
2018-07-22T05:23:21.374Z,97.00
2018-07-22T05:25:49.773Z,97.00
2018-07-22T05:28:18.250Z,97.00
2018-07-22T05:30:46.585Z,97.00
2018-07-22T05:33:14.969Z,97.00
2018-07-22T05:35:43.316Z,97.00
2018-07-22T05:38:11.763Z,97.00
2018-07-22T05:40:40.269Z,97.00
2018-07-22T05:43:08.670Z,97.00
2018-07-22T05:45:38.019Z,97.00
2018-07-22T05:48:06.394Z,97.00
2018-07-22T05:50:36.606Z,97.00
2018-07-22T05:53:04.972Z,97.00
2018-07-22T05:55:33.318Z,97.00
2018-07-22T05:58:02.370Z,97.00
2018-07-22T06:00:30.736Z,97.00
2018-07-22T06:02:59.091Z,97.00
2018-07-22T06:05:27.476Z,97.00
2018-07-22T06:07:55.819Z,97.00
2018-07-22T06:10:24.252Z,97.00
2018-07-22T06:12:52.603Z,97.00
2018-07-22T06:15:20.986Z,97.00
2018-07-22T06:17:49.379Z,97.00
2018-07-22T06:20:18.230Z,97.00
2018-07-22T06:22:46.623Z,97.00
2018-07-22T06:25:15.311Z,97.00
2018-07-22T06:27:44.403Z,97.00
2018-07-22T06:30:12.854Z,97.00
2018-07-22T06:32:41.348Z,97.00
2018-07-22T06:35:09.835Z,97.00
2018-07-22T06:37:38.147Z,97.00
2018-07-22T06:40:06.537Z,96.80
2018-07-22T06:42:34.935Z,96.20
2018-07-22T06:45:03.353Z,95.90
2018-07-22T06:47:31.729Z,95.40
2018-07-22T06:50:00.166Z,94.80
2018-07-22T06:52:28.489Z,94.30
2018-07-22T06:54:56.944Z,93.90
2018-07-22T06:57:25.351Z,93.30
2018-07-22T06:59:54.091Z,93.30
2018-07-22T07:02:22.720Z,92.80
2018-07-22T07:04:51.453Z,92.30
2018-07-22T07:07:20.095Z,92.10
2018-07-22T07:09:48.448Z,91.90
2018-07-22T07:12:16.910Z,92.30
2018-07-22T07:14:45.255Z,92.80
2018-07-22T07:17:14.176Z,92.90
2018-07-22T07:19:43.727Z,92.90
2018-07-22T07:22:12.224Z,92.50
2018-07-22T07:24:40.600Z,92.20
2018-07-22T07:27:09.384Z,92.50
2018-07-22T07:29:38.251Z,92.70
2018-07-22T07:32:07.115Z,93.90
2018-07-22T07:34:35.481Z,94.10
2018-07-22T07:37:03.845Z,94.00
2018-07-22T07:39:32.227Z,93.40
2018-07-22T07:42:00.579Z,93.40
2018-07-22T07:44:29.145Z,92.30
2018-07-22T07:46:57.748Z,91.70
2018-07-22T07:49:26.170Z,90.60
2018-07-22T07:51:54.779Z,91.20
2018-07-22T07:54:23.829Z,91.20
2018-07-22T07:56:52.162Z,91.10
2018-07-22T07:59:20.563Z,91.60
2018-07-22T08:01:48.956Z,91.30
2018-07-22T08:04:17.394Z,91.00
2018-07-22T08:06:46.195Z,90.70
2018-07-22T08:09:14.592Z,90.80
2018-07-22T08:11:43.277Z,91.80
2018-07-22T08:14:14.531Z,92.50
2018-07-22T08:16:43.098Z,92.40
2018-07-22T08:19:11.616Z,92.30
2018-07-22T08:21:40.117Z,92.00
2018-07-22T08:24:08.275Z,92.00
2018-07-22T08:26:36.701Z,92.00
2018-07-22T08:29:31.472Z,91.50
2018-07-22T08:32:00.598Z,90.50
2018-07-22T08:34:29.082Z,90.00
2018-07-22T08:36:57.586Z,88.80
2018-07-22T08:39:27.219Z,88.00
2018-07-22T08:41:56.288Z,86.70
2018-07-22T08:44:24.785Z,85.40
2018-07-22T08:46:53.166Z,85.60
2018-07-22T08:49:21.523Z,85.80
2018-07-22T08:51:50.066Z,84.90
2018-07-22T08:54:18.431Z,84.50
2018-07-22T08:56:46.785Z,85.10
2018-07-22T08:59:15.824Z,83.40
2018-07-22T09:01:44.201Z,82.60
2018-07-22T09:04:12.657Z,82.40
2018-07-22T09:06:41.031Z,81.50
2018-07-22T09:09:10.715Z,80.50
2018-07-22T09:11:39.061Z,80.90
2018-07-22T09:14:08.171Z,80.00
2018-07-22T09:16:36.561Z,80.50
2018-07-22T09:19:04.903Z,80.10
2018-07-22T09:21:33.259Z,80.60
2018-07-22T09:24:01.671Z,80.90
2018-07-22T09:26:30.255Z,79.50
2018-07-22T09:28:58.670Z,78.80
2018-07-22T09:31:27.124Z,78.50
2018-07-22T09:33:56.039Z,77.70
2018-07-22T09:36:24.408Z,76.70
2018-07-22T09:38:52.742Z,77.80
2018-07-22T09:41:21.836Z,77.70
2018-07-22T09:43:50.231Z,77.60
2018-07-22T09:46:18.780Z,78.40
2018-07-22T09:48:48.699Z,77.50
2018-07-22T09:51:20.599Z,77.60
2018-07-22T09:53:49.103Z,78.30
2018-07-22T09:56:17.487Z,77.70
2018-07-22T09:58:45.819Z,75.40
2018-07-22T10:01:14.200Z,74.40
2018-07-22T10:03:42.682Z,73.60
2018-07-22T10:06:11.018Z,73.20
2018-07-22T10:08:39.373Z,73.00
2018-07-22T10:11:07.756Z,72.30
2018-07-22T10:13:36.120Z,73.10
2018-07-22T10:16:04.616Z,72.80
2018-07-22T10:18:33.000Z,71.20
2018-07-22T10:21:01.411Z,70.80
2018-07-22T10:23:29.775Z,71.80
2018-07-22T10:25:58.095Z,72.10
2018-07-22T10:28:26.455Z,71.50
2018-07-22T10:30:54.832Z,71.90
2018-07-22T10:33:23.300Z,71.40
2018-07-22T10:35:51.769Z,72.10
2018-07-22T10:38:21.155Z,72.10
2018-07-22T10:40:50.320Z,72.30
2018-07-22T10:43:18.827Z,70.40
2018-07-22T10:45:47.150Z,69.90
2018-07-22T10:48:15.502Z,69.30
2018-07-22T10:50:43.836Z,68.60
2018-07-22T10:53:12.228Z,68.50
2018-07-22T10:55:40.630Z,66.80
2018-07-22T10:58:09.196Z,66.30
2018-07-22T11:00:37.570Z,66.30
2018-07-22T11:03:07.086Z,66.50
2018-07-22T11:05:37.029Z,66.80
2018-07-22T11:08:05.387Z,66.60
2018-07-22T11:10:33.708Z,66.30
2018-07-22T11:13:02.164Z,66.00
2018-07-22T11:15:30.528Z,65.70
2018-07-22T11:17:58.919Z,65.70
2018-07-22T11:20:27.283Z,64.90
2018-07-22T11:22:55.642Z,64.20
2018-07-22T11:25:24.056Z,63.90
2018-07-22T11:27:52.423Z,64.50
2018-07-22T11:30:20.716Z,64.20
2018-07-22T11:32:49.059Z,63.90
2018-07-22T11:35:17.399Z,63.70
2018-07-22T11:37:46.546Z,63.90
2018-07-22T11:40:14.946Z,64.20
2018-07-22T11:42:43.258Z,64.30
2018-07-22T11:45:11.635Z,63.50
2018-07-22T11:47:40.001Z,63.30
2018-07-22T11:50:08.403Z,63.80
2018-07-22T11:52:36.743Z,63.80
2018-07-22T11:55:05.089Z,63.10
2018-07-22T11:57:33.459Z,61.90
2018-07-22T12:00:02.044Z,62.70
2018-07-22T12:02:30.419Z,61.90
2018-07-22T12:04:58.834Z,62.20
2018-07-22T12:07:27.236Z,62.00
2018-07-22T12:09:55.572Z,62.80
2018-07-22T12:12:23.948Z,62.00
2018-07-22T12:14:52.239Z,62.40
2018-07-22T12:17:20.570Z,62.90
2018-07-22T12:19:48.912Z,62.70
2018-07-22T12:22:17.264Z,62.30
2018-07-22T12:24:45.706Z,61.90
2018-07-22T12:27:14.095Z,62.60
2018-07-22T12:29:42.899Z,62.90
2018-07-22T12:32:11.382Z,63.60
2018-07-22T12:34:39.710Z,64.20
2018-07-22T12:37:08.161Z,64.30
2018-07-22T12:39:36.563Z,64.10
2018-07-22T12:42:05.201Z,63.10
2018-07-22T12:44:33.556Z,62.90
2018-07-22T12:47:09.837Z,62.80
2018-07-22T12:49:38.174Z,61.90
2018-07-22T12:52:06.599Z,62.60
2018-07-22T12:54:34.971Z,61.90
2018-07-22T12:57:06.554Z,60.60
2018-07-22T12:59:34.963Z,60.30
2018-07-22T13:02:03.501Z,59.30
2018-07-22T13:04:31.943Z,59.90
2018-07-22T13:07:00.396Z,59.70
2018-07-22T13:09:29.516Z,58.80
2018-07-22T13:11:58.298Z,58.70
2018-07-22T13:14:26.646Z,58.70
2018-07-22T13:16:55.053Z,58.90
2018-07-22T13:19:23.468Z,57.90
2018-07-22T13:21:51.928Z,58.30
2018-07-22T13:24:20.304Z,57.80
2018-07-22T13:26:48.715Z,58.60
2018-07-22T13:29:17.072Z,58.60
2018-07-22T13:31:45.520Z,58.80
2018-07-22T13:34:13.980Z,59.50
2018-07-22T13:36:42.407Z,59.90
2018-07-22T13:39:11.857Z,60.90
2018-07-22T13:41:40.871Z,61.80
2018-07-22T13:44:09.240Z,61.80
2018-07-22T13:46:38.059Z,61.30
2018-07-22T13:49:06.715Z,61.10
2018-07-22T13:51:35.458Z,60.70
2018-07-22T13:54:04.692Z,61.10
2018-07-22T13:56:33.721Z,61.10
2018-07-22T13:59:02.071Z,59.30
2018-07-22T14:01:30.408Z,59.60
2018-07-22T14:03:58.835Z,60.00
2018-07-22T14:06:27.185Z,59.70
2018-07-22T14:08:55.511Z,59.60
2018-07-22T14:11:23.890Z,61.80
2018-07-22T14:16:20.518Z,62.50
2018-07-22T14:18:48.872Z,63.30
2018-07-22T14:21:17.246Z,63.60
2018-07-22T14:23:45.587Z,63.30
2018-07-22T14:26:13.942Z,63.40
2018-07-22T14:28:42.321Z,62.70
2018-07-22T14:31:14.632Z,62.70
2018-07-22T14:33:44.193Z,62.80
2018-07-22T14:36:12.558Z,62.80
2018-07-22T14:38:40.919Z,63.80
2018-07-22T14:41:09.331Z,64.00
2018-07-22T14:43:38.298Z,65.30
2018-07-22T14:46:06.839Z,66.00
2018-07-22T14:48:35.204Z,66.30
2018-07-22T14:51:04.417Z,66.90
2018-07-22T14:53:32.808Z,66.20
2018-07-22T14:56:01.217Z,65.80
2018-07-22T14:58:29.581Z,66.10
2018-07-22T15:00:58.017Z,66.70
2018-07-22T15:03:26.360Z,66.40
2018-07-22T15:05:54.694Z,66.80
2018-07-22T15:08:23.044Z,66.80
2018-07-22T15:10:51.583Z,66.10
2018-07-22T15:13:20.024Z,66.10
2018-07-22T15:15:48.533Z,65.10
2018-07-22T15:18:16.955Z,65.30
2018-07-22T15:20:45.406Z,65.80
2018-07-22T15:23:13.854Z,65.30
2018-07-22T15:25:42.335Z,64.70
2018-07-22T15:28:10.758Z,64.30
2018-07-22T15:30:40.211Z,63.70
2018-07-22T15:33:08.655Z,64.60
2018-07-22T15:35:37.117Z,64.30
2018-07-22T15:38:05.607Z,64.10
2018-07-22T15:40:34.100Z,63.90
2018-07-22T15:43:02.493Z,62.70
2018-07-22T15:45:30.978Z,63.50
2018-07-22T15:47:59.299Z,64.00
2018-07-22T15:50:27.708Z,63.90
2018-07-22T15:52:56.049Z,63.70
2018-07-22T15:55:24.664Z,63.10
2018-07-22T15:57:52.812Z,63.50
2018-07-22T16:00:21.251Z,64.10
2018-07-22T16:02:49.682Z,64.20
2018-07-22T16:05:17.998Z,64.70
2018-07-22T16:07:46.857Z,64.60
2018-07-22T16:10:15.206Z,64.60
2018-07-22T16:12:43.718Z,65.30
2018-07-22T16:15:12.107Z,65.90
2018-07-22T16:17:40.479Z,65.50
2018-07-22T16:20:08.902Z,65.60
2018-07-22T16:22:37.248Z,65.80
2018-07-22T16:25:05.758Z,66.00
2018-07-22T16:27:34.095Z,65.90
2018-07-22T16:30:02.498Z,66.20
2018-07-22T16:32:30.843Z,66.00
2018-07-22T16:34:59.202Z,66.30
2018-07-22T16:37:27.561Z,65.50
2018-07-22T16:39:55.896Z,66.30
2018-07-22T16:42:24.258Z,66.70
2018-07-22T16:44:52.659Z,66.80
2018-07-22T16:47:20.999Z,67.30
2018-07-22T16:49:49.348Z,67.60
2018-07-22T16:52:17.747Z,68.10
2018-07-22T16:54:46.172Z,68.40
2018-07-22T16:57:14.500Z,69.20
2018-07-22T16:59:42.929Z,69.70
2018-07-22T17:02:11.626Z,70.20
2018-07-22T17:04:40.063Z,70.60
2018-07-22T17:07:08.735Z,70.80
2018-07-22T17:09:37.102Z,71.00
2018-07-22T17:12:05.568Z,70.90
2018-07-22T17:14:34.064Z,71.00
2018-07-22T17:17:02.644Z,70.80
2018-07-22T17:19:31.014Z,71.10
2018-07-22T17:22:06.605Z,71.50
2018-07-22T17:24:35.086Z,71.30
2018-07-22T17:27:03.583Z,71.50
2018-07-22T17:29:31.958Z,71.70
2018-07-22T17:32:00.518Z,71.80
2018-07-22T17:34:28.975Z,71.60
2018-07-22T17:36:57.439Z,72.00
2018-07-22T17:39:26.003Z,72.00
2018-07-22T17:41:54.536Z,71.90
2018-07-22T17:44:23.013Z,71.90
2018-07-22T17:46:51.830Z,71.90
2018-07-22T17:49:20.332Z,72.10
2018-07-22T17:51:49.454Z,72.50
2018-07-22T17:54:17.990Z,72.60
2018-07-22T17:56:46.428Z,72.90
2018-07-22T17:59:14.951Z,72.90
2018-07-22T18:01:43.328Z,73.10
2018-07-22T18:04:11.744Z,73.20
2018-07-22T18:06:40.218Z,73.10
2018-07-22T18:09:09.316Z,73.10
2018-07-22T18:11:37.821Z,73.30
2018-07-22T18:14:06.450Z,73.30
2018-07-22T18:16:35.406Z,73.40
2018-07-22T18:19:03.872Z,73.40
2018-07-22T18:21:32.654Z,73.90
2018-07-22T18:24:01.111Z,73.90
2018-07-22T18:26:29.460Z,74.30
2018-07-22T18:28:57.944Z,74.50
2018-07-22T18:31:29.263Z,74.90
2018-07-22T18:33:57.684Z,75.00
2018-07-22T18:36:26.134Z,75.40
2018-07-22T18:38:54.624Z,75.70
2018-07-22T18:41:23.124Z,76.00
2018-07-22T18:43:51.715Z,76.00
2018-07-22T18:46:20.278Z,76.30
2018-07-22T18:48:48.719Z,76.60
2018-07-22T18:51:17.562Z,76.80
2018-07-22T18:53:45.974Z,77.10
2018-07-22T18:56:14.345Z,77.30
2018-07-22T18:58:42.675Z,77.60
2018-07-22T19:01:11.051Z,77.60
2018-07-22T19:03:39.432Z,77.80
2018-07-22T19:06:07.823Z,77.80
2018-07-22T19:08:36.230Z,77.90
2018-07-22T19:11:04.627Z,78.10
2018-07-22T19:13:32.980Z,78.50
2018-07-22T19:16:01.351Z,78.50
2018-07-22T19:18:29.708Z,78.50
2018-07-22T19:20:58.213Z,78.90
2018-07-22T19:23:26.604Z,79.30
2018-07-22T19:25:54.940Z,79.70
2018-07-22T19:28:23.321Z,79.80
2018-07-22T19:30:51.714Z,79.90
2018-07-22T19:33:20.068Z,80.30
2018-07-22T19:35:48.470Z,80.70
2018-07-22T19:38:16.947Z,80.90
2018-07-22T19:40:45.373Z,81.40
2018-07-22T19:43:13.810Z,81.70
2018-07-22T19:45:42.190Z,81.50
2018-07-22T19:48:10.536Z,81.60
2018-07-22T19:50:38.879Z,81.90
2018-07-22T19:53:07.234Z,82.60
2018-07-22T19:55:35.652Z,82.80
2018-07-22T19:58:04.010Z,83.10
2018-07-22T20:00:32.420Z,83.40
2018-07-22T20:03:00.863Z,83.50
2018-07-22T20:05:29.236Z,84.40
2018-07-22T20:07:57.593Z,85.70
2018-07-22T20:10:25.950Z,86.40
2018-07-22T20:12:54.407Z,86.00
2018-07-22T20:15:22.797Z,85.70
2018-07-22T20:17:51.176Z,85.70
2018-07-22T20:20:19.551Z,85.50
2018-07-22T20:22:47.910Z,85.40
2018-07-22T20:25:16.298Z,85.40
2018-07-22T20:27:44.670Z,86.50
2018-07-22T20:30:13.046Z,86.70
2018-07-22T20:32:41.480Z,87.30
2018-07-22T20:35:09.819Z,87.30
2018-07-22T20:37:38.303Z,87.40
2018-07-22T20:40:07.048Z,87.60
2018-07-22T20:42:35.424Z,87.60
2018-07-22T20:45:04.339Z,87.90
2018-07-22T20:47:32.697Z,88.10
2018-07-22T20:50:01.162Z,88.10
2018-07-22T20:52:30.288Z,88.30
2018-07-22T20:54:58.717Z,88.30
2018-07-22T20:57:27.078Z,88.50
2018-07-22T20:59:56.338Z,88.60
2018-07-22T21:02:24.765Z,88.80
2018-07-22T21:04:53.315Z,89.00
2018-07-22T21:07:21.723Z,89.20
2018-07-22T21:09:50.052Z,89.00
2018-07-22T21:12:55.571Z,89.00
2018-07-22T21:15:23.987Z,89.30
2018-07-22T21:17:52.835Z,89.70
2018-07-22T21:20:21.947Z,90.00
2018-07-22T21:22:50.274Z,90.00
2018-07-22T21:25:18.848Z,89.80
2018-07-22T21:27:47.288Z,90.30
2018-07-22T21:30:16.020Z,90.40
2018-07-22T21:32:44.448Z,90.30
2018-07-22T21:35:12.803Z,90.40
2018-07-22T21:37:41.155Z,90.20
2018-07-22T21:40:09.708Z,90.30
2018-07-22T21:42:38.123Z,90.70
2018-07-22T21:45:07.189Z,90.60
2018-07-22T21:47:35.900Z,91.30
2018-07-22T21:50:04.987Z,91.70
2018-07-22T21:52:33.399Z,92.50
2018-07-22T21:55:01.733Z,92.80
2018-07-22T21:57:30.087Z,93.10
2018-07-22T21:59:58.506Z,93.60
2018-07-22T22:02:30.709Z,93.60
2018-07-22T22:04:59.426Z,94.10
2018-07-22T22:07:27.839Z,94.20
2018-07-22T22:09:56.254Z,94.50
2018-07-22T22:12:24.609Z,94.80
2018-07-22T22:14:53.007Z,95.00
2018-07-22T22:17:21.387Z,95.00
2018-07-22T22:19:49.773Z,95.40
2018-07-22T22:22:18.104Z,95.40
2018-07-22T22:24:46.498Z,95.60
2018-07-22T22:27:14.928Z,95.90
2018-07-22T22:29:43.281Z,95.90
2018-07-22T22:32:11.726Z,95.80
2018-07-22T22:34:40.089Z,96.00
2018-07-22T22:37:08.453Z,96.40
2018-07-22T22:39:36.800Z,96.50
2018-07-22T22:42:05.161Z,96.90
2018-07-22T22:44:33.551Z,97.00
2018-07-22T22:47:01.920Z,97.00
2018-07-22T22:49:30.256Z,97.00
2018-07-22T22:51:58.596Z,97.00
2018-07-22T22:54:26.946Z,97.00
2018-07-22T22:56:55.328Z,97.00
2018-07-22T22:59:24.363Z,97.00
2018-07-22T23:01:52.762Z,97.00
2018-07-22T23:04:21.093Z,97.00
2018-07-22T23:06:49.507Z,97.00
2018-07-22T23:09:17.951Z,97.00
2018-07-22T23:11:46.338Z,97.00
2018-07-22T23:14:14.683Z,97.00
2018-07-22T23:16:43.062Z,97.00
2018-07-22T23:19:11.635Z,97.00
2018-07-22T23:21:40.070Z,97.00
2018-07-22T23:24:08.781Z,97.00
2018-07-22T23:26:37.178Z,97.00
2018-07-22T23:29:05.558Z,97.00
2018-07-22T23:31:33.928Z,97.00
2018-07-22T23:34:02.887Z,97.00
2018-07-22T23:36:31.263Z,97.00
2018-07-22T23:38:59.639Z,97.00
2018-07-22T23:41:28.085Z,97.00
2018-07-22T23:43:56.473Z,97.00
2018-07-22T23:46:24.843Z,97.00
2018-07-22T23:48:53.194Z,97.00
2018-07-22T23:51:21.643Z,97.00
2018-07-22T23:53:50.031Z,97.00
2018-07-22T23:58:46.551Z,97.00
